Flight Track Log - Related Links

Times and Time Zones

All times are in EDT time to prevent confusion due to time zone crossing. See the TRS265 flight status page for this flight to view local times or setup timezone preferences in your user account.

Time Position Orientation Groundspeed Altitude Reporting Facility
EDT Latitude Longitude Course Direction KTS MPH feet Rate Location/Type
Fri 02:55:27 PM 33.6500 -84.4500 287° West 164 189 3,100  Level Atlanta TRACON
Fri 02:56:27 PM 33.6667 -84.5167 287° West 219 252 4,000 1,842 Climbing Atlanta TRACON
Fri 02:57:21 PM 33.7000 -84.5667 309° West 235 270 6,600 2,500 Climbing Atlanta TRACON
Fri 02:58:27 PM 33.7833 -84.5667 360° North 297 342 9,000 1,857 Climbing Atlanta TRACON
Fri 03:00:51 PM 33.8128 -84.3064 82° East 327 376 13,100 1,706 Climbing Atlanta Center
Fri 03:01:51 PM 33.8339 -84.1714 79° East 381 438 14,800 1,800 Climbing Atlanta Center
Fri 03:02:51 PM 33.8631 -84.0264 76° East 421 484 16,700 1,950 Climbing Atlanta Center
Fri 03:03:51 PM 33.8922 -83.8836 76° East 430 495 18,700 2,033 Climbing Atlanta Center
Fri 03:05:51 PM 34.0000 -83.6028 65° Northeast 450 518 22,800 1,967 Climbing Atlanta Center
Fri 03:06:51 PM 34.0831 -83.4669 54° Northeast 474 545 24,600 1,700 Climbing Atlanta Center
Fri 03:07:51 PM 34.1639 -83.3383 53° Northeast 486 559 26,200 1,450 Climbing Atlanta Center
Fri 03:08:51 PM 34.2233 -83.1822 65° Northeast 495 570 27,500 1,300 Climbing Atlanta Center
Fri 03:09:51 PM 34.2783 -83.0256 67° East 505 581 28,800 1,350 Climbing Atlanta Center
Fri 03:10:51 PM 34.3272 -82.8867 67° East 505 581 30,200 1,450 Climbing Atlanta Center
Fri 03:11:51 PM 34.3864 -82.7325 65° Northeast 495 570 31,700 1,350 Climbing Atlanta Center
Fri 03:12:51 PM 34.4533 -82.5650 64° Northeast 495 570 32,900 650 Climbing Atlanta Center
Fri 03:13:51 PM 34.5397 -82.4603 45° Northeast 488 562 33,000 50 Climbing Atlanta Center
Fri 03:14:51 PM 34.6214 -82.3275 53° Northeast 488 562 33,000  Level Atlanta Center
Fri 03:15:51 PM 34.7050 -82.1944 53° Northeast 488 562 33,000  Level Atlanta Center
Fri 03:16:51 PM 34.7864 -82.0636 53° Northeast 488 562 33,000  Level Atlanta Center
Fri 03:17:51 PM 34.8736 -81.9147 54° Northeast 488 562 33,000  Level Atlanta Center
Fri 03:18:51 PM 34.9631 -81.7856 50° Northeast 488 562 33,000  Level Atlanta Center
Fri 03:19:51 PM 35.0400 -81.6517 55° Northeast 488 562 33,000  Level Atlanta Center
Fri 03:20:51 PM 35.1206 -81.5147 54° Northeast 488 562 33,000  Level Atlanta Center
Fri 03:21:51 PM 35.2014 -81.3853 53° Northeast 488 562 33,000  Level Atlanta Center
Fri 03:22:51 PM 35.2839 -81.2503 53° Northeast 493 567 33,000  Level Atlanta Center
Fri 03:23:51 PM 35.3664 -81.1125 54° Northeast 488 562 33,000  Level Atlanta Center
Fri 03:24:51 PM 35.4406 -80.9900 53° Northeast 488 562 33,000  Level Atlanta Center
Fri 03:25:51 PM 35.5206 -80.8569 54° Northeast 493 567 33,000  Level Atlanta Center
Fri 03:27:56 PM 35.6981 -80.5592 54° Northeast 514 592 33,000  Level Washington Center
Fri 03:28:56 PM 35.7789 -80.4258 53° Northeast 504 580 33,000  Level Washington Center
Fri 03:29:57 PM 35.8594 -80.2897 54° Northeast 493 567 33,000  Level Washington Center
Fri 03:30:58 PM 35.9397 -80.1536 54° Northeast 493 567 33,000  Level Washington Center
Fri 03:31:58 PM 36.0219 -80.0222 52° Northeast 488 562 33,000  Level Washington Center
Fri 03:32:58 PM 36.1000 -79.8850 55° Northeast 488 562 33,000  Level Washington Center
Fri 03:33:56 PM 36.1778 -79.7453 55° Northeast 493 567 33,000  Level Washington Center
Fri 03:34:58 PM 36.2578 -79.6078 54° Northeast 493 567 33,000  Level Washington Center
Fri 03:35:56 PM 36.3331 -79.4697 56° Northeast 493 567 33,000  Level Washington Center
Fri 03:36:56 PM 36.4019 -79.3442 56° Northeast 487 560 33,000  Level Washington Center
Fri 03:37:57 PM 36.4858 -79.1906 56° Northeast 487 560 33,000  Level Washington Center
Fri 03:38:57 PM 36.5669 -79.0575 53° Northeast 482 555 33,000  Level Washington Center
Fri 03:39:56 PM 36.6439 -78.9183 55° Northeast 482 555 33,000  Level Washington Center
Fri 03:40:57 PM 36.7122 -78.7839 58° Northeast 488 562 33,000  Level Washington Center
Fri 03:41:58 PM 36.7889 -78.6444 56° Northeast 488 562 33,000  Level Washington Center
Fri 03:42:59 PM 36.8656 -78.5072 55° Northeast 488 562 33,000  Level Washington Center
Fri 03:43:56 PM 36.9353 -78.3828 55° Northeast 488 562 33,000  Level Washington Center
Fri 03:44:57 PM 37.0267 -78.2142 56° Northeast 488 562 33,000  Level Washington Center
Fri 03:45:58 PM 37.1006 -78.0736 57° Northeast 481 554 33,000  Level Washington Center
Fri 03:46:56 PM 37.1764 -77.9378 55° Northeast 476 548 33,000  Level Washington Center
Fri 03:47:56 PM 37.2500 -77.7939 57° Northeast 476 548 33,000  Level Washington Center
Fri 03:48:57 PM 37.3253 -77.6550 56° Northeast 481 554 33,000  Level Washington Center
Fri 03:49:57 PM 37.3986 -77.5158 56° Northeast 476 548 33,000  Level Washington Center
Fri 03:50:58 PM 37.4717 -77.3792 56° Northeast 476 548 33,000  Level Washington Center
Fri 03:51:57 PM 37.5653 -77.2581 46° Northeast 476 548 33,000  Level Washington Center
Fri 03:52:58 PM 37.6689 -77.1528 39° Northeast 469 540 33,000  Level Washington Center
Fri 03:53:58 PM 37.7722 -77.0472 39° Northeast 469 540 33,000  Level Washington Center
Fri 03:54:57 PM 37.8758 -76.9414 39° Northeast 474 545 33,000  Level Washington Center
Fri 03:55:57 PM 37.9769 -76.8353 40° Northeast 474 545 33,000  Level Washington Center
Fri 03:56:59 PM 38.0678 -76.7100 47° Northeast 474 545 33,000  Level Washington Center
Fri 03:57:57 PM 38.1567 -76.5819 49° Northeast 474 545 33,000  Level Washington Center
Fri 03:58:57 PM 38.2472 -76.4564 47° Northeast 479 551 33,000  Level Washington Center
Fri 03:59:58 PM 38.3375 -76.3567 41° Northeast 477 549 33,000  Level Washington Center
Fri 04:00:56 PM 38.4444 -76.2569 36° Northeast 477 549 33,000  Level Washington Center
Fri 04:01:56 PM 38.5619 -76.1439 37° Northeast 477 549 33,000  Level Washington Center
Fri 04:02:57 PM 38.6728 -76.0464 34° Northeast 482 555 33,000  Level Washington Center
Fri 04:03:58 PM 38.7794 -75.9431 37° Northeast 482 555 33,000  Level Washington Center
Fri 04:04:56 PM 38.8858 -75.8478 35° Northeast 482 555 33,000  Level Washington Center
Fri 04:05:57 PM 38.9944 -75.7439 37° Northeast 477 549 33,000  Level Washington Center
Fri 04:06:56 PM 39.1031 -75.6397 37° Northeast 477 549 33,000  Level Washington Center
Fri 04:07:56 PM 39.2092 -75.5381 37° Northeast 477 549 33,000  Level Washington Center
Fri 04:08:57 PM 39.3175 -75.4386 35° Northeast 477 549 33,000  Level Washington Center
Fri 04:09:58 PM 39.4278 -75.3389 35° Northeast 482 555 33,000  Level Washington Center
Fri 04:10:58 PM 39.5381 -75.2389 35° Northeast 482 555 33,000  Level Washington Center
Fri 04:13:19 PM 39.7914 -75.0125 34° Northeast 480 552 33,000  Level New York Center
Fri 04:14:19 PM 39.9053 -74.9111 34° Northeast 494 568 33,000  Level New York Center
Fri 04:15:19 PM 40.0128 -74.7631 47° Northeast 494 568 33,000  Level New York Center
Fri 04:16:19 PM 40.1025 -74.6297 49° Northeast 494 568 33,000  Level New York Center
Fri 04:17:19 PM 40.1750 -74.5197 49° Northeast 494 568 33,000  Level New York Center
Fri 04:18:19 PM 40.2736 -74.3619 51° Northeast 500 575 33,000  Level New York Center
Fri 04:19:19 PM 40.3653 -74.2222 49° Northeast 506 582 33,000  Level New York Center
Fri 04:20:19 PM 40.4547 -74.0822 50° Northeast 506 582 33,000  Level New York Center
Fri 04:21:19 PM 40.5442 -73.9417 50° Northeast 506 582 33,000 -395 Level New York Center
Fri 04:23:06 PM 40.7017 -73.6961 50° Northeast 503 579 31,900 -1,376 Descending Boston Center
Fri 04:24:09 PM 40.7892 -73.5561 50° Northeast 498 573 29,100 -2,516 Descending Boston Center
Fri 04:25:10 PM 40.8753 -73.4167 51° Northeast 493 567 26,700 -1,835 Descending Boston Center
Fri 04:26:10 PM 40.9714 -73.2756 48° Northeast 496 571 25,400 -1,366 Descending Boston Center
Fri 04:27:13 PM 41.0825 -73.1111 48° Northeast 497 572 23,900 -1,161 Descending Boston Center
Fri 04:28:14 PM 41.1625 -72.9592 55° Northeast 499 574 23,000 -443 Descending Boston Center
Fri 04:29:15 PM 41.2264 -72.7906 63° Northeast 503 579 23,000  Level Boston Center
Fri 04:30:16 PM 41.2892 -72.6219 64° Northeast 503 579 23,000  Level Boston Center
Fri 04:31:20 PM 41.3517 -72.4536 64° Northeast 503 579 23,000  Level Boston Center
Fri 04:32:20 PM 41.4131 -72.2869 64° Northeast 503 579 23,000 -397 Level Boston Center
Fri 04:33:21 PM 41.4739 -72.1214 64° Northeast 501 577 22,200 -2,213 Descending Boston Center
Fri 04:34:22 PM 41.5400 -71.9444 63° Northeast 489 563 18,500 -3,541 Descending Boston Center
Fri 04:35:23 PM 41.5989 -71.7794 64° Northeast 457 526 15,000 -3,049 Descending Boston Center
Fri 04:36:24 PM 41.6511 -71.6344 64° Northeast 440 506 12,300 -1,776 Descending Boston Center
Fri 04:37:28 PM 41.7011 -71.4964 64° Northeast 380 437 11,300 -629 Descending Boston Center
Fri 04:38:28 PM 41.7439 -71.3861 63° Northeast 336 387 11,000 -149 Descending Boston Center
Fri 04:39:29 PM 41.8006 -71.2922 51° Northeast 328 377 11,000 -545 Level Boston Center
Fri 04:40:29 PM 41.8858 -71.2456 22° Northeast 310 357 9,900 -1,452 Descending Boston Center
Fri 04:41:33 PM 41.9644 -71.2031 22° Northeast 309 356 8,000 -1,632 Descending Boston Center
Fri 04:42:34 PM 42.0414 -71.1639 21° North 297 342 6,500 -1,587 Descending Boston Center
Fri 04:43:34 PM 42.1194 -71.1239 21° North 284 327 4,800 -1,328 Descending Boston Center
Fri 04:44:36 PM 42.1869 -71.0906 20° North 258 297 3,800 -1,104 Descending Boston Center
Fri 04:45:39 PM 42.2472 -71.0622 19° North 234 269 2,500 -1,161 Descending Boston Center
Fri 04:46:40 PM 42.2969 -71.0383 20° North 191 220 1,400 -984 Descending Boston Center
Fri 04:47:41 PM 42.3378 -71.0183 20° North 163 188 500 -590 Descending Boston Center
Fri 04:48:42 PM 42.3725 -70.9994 22° Northeast 158 182 200 -295 Descending Boston Center

Login

Don't have an account? Register now (free) for customized features, flight alerts, and more!